createdAt,value
2024-03-06T00:01:05.675Z,62.94
2024-03-06T00:03:32.226Z,62.64
2024-03-06T00:05:58.723Z,62.57
2024-03-06T00:08:25.254Z,62.85
2024-03-06T00:10:51.805Z,62.65
2024-03-06T00:13:18.363Z,62.69
2024-03-06T00:15:44.850Z,62.97
2024-03-06T00:18:11.574Z,62.59
2024-03-06T00:20:38.756Z,62.28
2024-03-06T00:23:05.542Z,62.42
2024-03-06T00:25:32.127Z,62.36
2024-03-06T00:27:58.719Z,62.40
2024-03-06T00:30:25.290Z,62.48
2024-03-06T00:32:52.017Z,62.80
2024-03-06T00:35:18.781Z,63.02
2024-03-06T00:37:45.555Z,62.93
2024-03-06T00:40:13.055Z,63.18
2024-03-06T00:42:41.634Z,63.54
2024-03-06T00:45:08.666Z,63.85
2024-03-06T00:47:35.831Z,63.79
2024-03-06T00:50:02.754Z,64.02
2024-03-06T00:52:29.294Z,63.54
2024-03-06T00:54:55.866Z,63.65
2024-03-06T00:57:22.337Z,62.45
2024-03-06T00:59:48.855Z,62.34
2024-03-06T01:02:15.536Z,62.93
2024-03-06T01:04:42.237Z,63.00
2024-03-06T01:07:08.819Z,64.03
2024-03-06T01:09:35.567Z,64.43
2024-03-06T01:12:02.081Z,64.53
2024-03-06T01:14:28.549Z,64.07
2024-03-06T01:16:55.176Z,64.65
2024-03-06T01:19:21.769Z,64.63
2024-03-06T01:21:49.638Z,64.83
2024-03-06T01:24:16.168Z,65.04
2024-03-06T01:26:42.690Z,63.15
2024-03-06T01:29:09.296Z,61.75
2024-03-06T01:31:35.847Z,62.12
2024-03-06T01:34:02.335Z,61.71
2024-03-06T01:36:28.906Z,61.40
2024-03-06T01:38:55.390Z,61.28
2024-03-06T01:41:21.992Z,61.79
2024-03-06T01:43:48.613Z,61.85
2024-03-06T01:46:15.226Z,62.80
2024-03-06T01:48:44.023Z,63.35
2024-03-06T01:51:10.902Z,62.11
2024-03-06T01:53:37.955Z,64.38
2024-03-06T01:56:05.468Z,65.72
2024-03-06T01:58:35.088Z,64.32
2024-03-06T02:01:02.603Z,63.60
2024-03-06T02:03:30.781Z,65.67
2024-03-06T02:05:59.879Z,63.04
2024-03-06T02:08:26.585Z,65.00
2024-03-06T02:10:53.469Z,63.92
2024-03-06T02:13:20.401Z,64.65
2024-03-06T02:15:47.101Z,64.05
2024-03-06T02:18:13.945Z,61.55
2024-03-06T02:20:43.806Z,62.83
2024-03-06T02:23:10.545Z,64.22
2024-03-06T02:25:37.459Z,62.52
2024-03-06T02:28:04.347Z,62.85
2024-03-06T02:30:36.620Z,65.76
2024-03-06T02:33:13.167Z,64.30
2024-03-06T02:35:41.206Z,65.54
2024-03-06T02:38:07.947Z,64.52
2024-03-06T02:40:34.827Z,66.94
2024-03-06T02:43:01.531Z,66.70
2024-03-06T02:45:28.075Z,66.67
2024-03-06T02:47:55.218Z,64.57
2024-03-06T02:50:22.450Z,66.48
2024-03-06T02:52:49.097Z,64.16
2024-03-06T02:55:16.288Z,66.38
2024-03-06T02:57:42.880Z,63.66
2024-03-06T03:00:14.713Z,66.91
2024-03-06T03:02:41.480Z,66.94
2024-03-06T03:05:08.595Z,67.63
2024-03-06T03:07:35.254Z,65.61
2024-03-06T03:10:01.907Z,65.80
2024-03-06T03:12:28.377Z,67.49
2024-03-06T03:14:54.882Z,68.22
2024-03-06T03:17:21.484Z,68.03
2024-03-06T03:19:48.146Z,67.56
2024-03-06T03:22:14.652Z,67.90
2024-03-06T03:24:43.044Z,68.21
2024-03-06T03:27:09.492Z,66.01
2024-03-06T03:29:36.050Z,65.31
2024-03-06T03:32:02.636Z,65.23
2024-03-06T03:34:29.236Z,67.25
2024-03-06T03:36:55.821Z,67.32
2024-03-06T03:39:25.493Z,66.17
2024-03-06T03:41:52.115Z,67.37
2024-03-06T03:44:22.904Z,68.69
2024-03-06T03:46:49.567Z,68.38
2024-03-06T03:49:16.304Z,68.29
2024-03-06T03:51:42.908Z,68.26
2024-03-06T03:54:09.436Z,67.80
2024-03-06T03:56:36.300Z,67.99
2024-03-06T03:59:03.073Z,67.67
2024-03-06T04:01:29.769Z,67.68
2024-03-06T04:03:56.314Z,68.06
2024-03-06T04:06:22.948Z,69.38
2024-03-06T04:08:50.067Z,69.03
2024-03-06T04:11:17.057Z,69.34
2024-03-06T04:13:43.847Z,70.12
2024-03-06T04:16:10.637Z,70.10
2024-03-06T04:18:37.404Z,69.22
2024-03-06T04:21:07.341Z,67.62
2024-03-06T04:23:34.302Z,68.00
2024-03-06T04:26:01.646Z,68.92
2024-03-06T04:28:28.286Z,68.62
2024-03-06T04:30:54.999Z,68.60
2024-03-06T04:33:21.544Z,68.21
2024-03-06T04:35:48.292Z,67.04
2024-03-06T04:38:15.096Z,66.96
2024-03-06T04:40:41.882Z,65.64
2024-03-06T04:43:08.514Z,66.52
2024-03-06T04:45:35.268Z,67.85
2024-03-06T04:48:01.941Z,67.98
2024-03-06T04:50:28.603Z,68.85
2024-03-06T04:52:55.600Z,68.08
2024-03-06T04:55:24.099Z,69.47
2024-03-06T04:57:50.911Z,68.33
2024-03-06T05:00:19.779Z,68.02
2024-03-06T06:00:17.768Z,69.88
2024-03-06T06:02:45.985Z,70.03
2024-03-06T06:07:45.586Z,69.71
2024-03-06T06:10:12.487Z,69.97
2024-03-06T06:12:39.055Z,70.99
2024-03-06T06:15:06.193Z,71.28
2024-03-06T06:17:32.777Z,71.24
2024-03-06T06:19:59.409Z,70.99
2024-03-06T06:22:28.899Z,70.88
2024-03-06T06:24:56.830Z,70.90
2024-03-06T06:27:23.455Z,70.23
2024-03-06T06:29:49.932Z,70.42
2024-03-06T06:32:16.616Z,69.60
2024-03-06T06:34:43.128Z,69.47
2024-03-06T06:37:09.627Z,69.35
2024-03-06T06:39:36.156Z,69.00
2024-03-06T06:42:05.449Z,68.85
2024-03-06T06:44:31.986Z,69.14
2024-03-06T06:46:58.858Z,68.97
2024-03-06T06:49:25.377Z,68.81
2024-03-06T06:51:52.799Z,68.44
2024-03-06T06:54:19.496Z,68.72
2024-03-06T06:56:46.061Z,68.57
2024-03-06T06:59:14.529Z,68.24
2024-03-06T07:01:42.846Z,68.07
2024-03-06T07:04:09.355Z,68.14
2024-03-06T07:06:36.532Z,68.65
2024-03-06T07:09:06.026Z,67.64
2024-03-06T07:11:32.544Z,67.80
2024-03-06T07:13:59.056Z,67.26
2024-03-06T07:16:25.678Z,67.57
2024-03-06T07:18:52.214Z,67.13
2024-03-06T07:21:19.158Z,66.82
2024-03-06T07:23:45.726Z,67.11
2024-03-06T07:26:12.840Z,66.75
2024-03-06T07:28:39.571Z,66.22
2024-03-06T07:31:06.073Z,66.50
2024-03-06T07:33:35.346Z,66.63
2024-03-06T07:36:02.228Z,66.53
2024-03-06T07:38:29.537Z,66.43
2024-03-06T07:40:56.713Z,67.05
2024-03-06T07:43:24.473Z,66.30
2024-03-06T07:45:51.020Z,65.98
2024-03-06T07:48:17.669Z,65.73
2024-03-06T07:50:44.242Z,65.62
2024-03-06T07:53:10.783Z,65.56
2024-03-06T07:55:37.378Z,65.25
2024-03-06T07:58:03.945Z,65.62
2024-03-06T08:00:32.421Z,64.83
2024-03-06T08:02:59.179Z,63.46
2024-03-06T08:05:25.748Z,63.90
2024-03-06T08:07:52.376Z,65.07
2024-03-06T08:10:19.932Z,63.53
2024-03-06T08:12:47.247Z,63.37
2024-03-06T08:15:15.191Z,63.96
2024-03-06T08:17:44.961Z,63.46
2024-03-06T08:20:12.885Z,63.05
2024-03-06T08:22:41.006Z,62.41
2024-03-06T08:25:08.927Z,62.90
2024-03-06T08:27:37.263Z,62.26
2024-03-06T08:30:08.431Z,61.13
2024-03-06T08:32:36.484Z,61.28
2024-03-06T08:35:07.532Z,60.35
2024-03-06T08:37:34.713Z,60.42
2024-03-06T08:40:02.084Z,60.33
2024-03-06T08:42:29.314Z,60.35
2024-03-06T08:44:56.156Z,60.26
2024-03-06T08:47:22.706Z,58.76
2024-03-06T08:49:49.356Z,58.21
2024-03-06T08:52:16.051Z,60.53
2024-03-06T08:54:42.903Z,58.71
2024-03-06T08:57:10.064Z,58.58
2024-03-06T08:59:36.734Z,56.84
2024-03-06T09:02:17.713Z,55.56
2024-03-06T09:04:44.480Z,55.54
2024-03-06T09:07:11.596Z,55.71
2024-03-06T09:09:38.496Z,55.00
2024-03-06T09:12:06.566Z,54.14
2024-03-06T09:14:36.455Z,53.11
2024-03-06T09:17:03.194Z,54.26
2024-03-06T09:19:30.439Z,53.32
2024-03-06T09:21:57.586Z,51.83
2024-03-06T09:24:26.207Z,52.13
2024-03-06T09:26:53.611Z,52.77
2024-03-06T09:29:20.573Z,51.17
2024-03-06T09:31:48.991Z,50.61
2024-03-06T09:34:16.207Z,50.45
2024-03-06T09:36:48.198Z,50.21
2024-03-06T09:39:24.027Z,49.87
2024-03-06T09:41:51.425Z,50.69
2024-03-06T09:44:19.168Z,47.72
2024-03-06T09:46:47.118Z,47.96
2024-03-06T09:49:16.497Z,47.58
2024-03-06T09:51:54.676Z,46.48
2024-03-06T09:54:21.347Z,46.30
2024-03-06T09:56:49.333Z,46.28
2024-03-06T09:59:16.572Z,47.93
2024-03-06T10:01:58.195Z,47.03
2024-03-06T10:04:28.743Z,47.34
2024-03-06T10:07:00.056Z,47.88
2024-03-06T10:09:28.078Z,46.69
2024-03-06T10:11:55.395Z,45.75
2024-03-06T10:14:22.167Z,46.27
2024-03-06T10:16:58.964Z,46.97
2024-03-06T10:19:30.336Z,46.15
2024-03-06T10:21:58.530Z,46.60
2024-03-06T10:24:27.704Z,46.73
2024-03-06T10:26:59.758Z,45.12
2024-03-06T10:29:30.318Z,43.42
2024-03-06T10:31:59.389Z,43.22
2024-03-06T10:34:27.695Z,42.90
2024-03-06T10:36:59.003Z,42.07
2024-03-06T10:39:25.874Z,41.52
2024-03-06T10:41:59.178Z,40.29
2024-03-06T10:44:27.484Z,39.89
2024-03-06T10:47:01.591Z,40.24
2024-03-06T10:49:30.650Z,38.85
2024-03-06T10:52:08.290Z,39.92
2024-03-06T10:54:36.231Z,39.55
2024-03-06T10:57:03.681Z,38.04
2024-03-06T10:59:31.337Z,37.66
2024-03-06T11:02:01.964Z,38.20
2024-03-06T11:04:31.236Z,36.61
2024-03-06T11:07:00.692Z,37.06
2024-03-06T11:09:36.408Z,36.69
2024-03-06T11:12:04.043Z,36.12
2024-03-06T11:14:32.663Z,36.06
2024-03-06T11:17:05.425Z,35.35
2024-03-06T11:19:33.555Z,34.31
2024-03-06T11:22:00.729Z,34.70
2024-03-06T11:24:34.802Z,35.65
2024-03-06T11:27:02.435Z,35.67
2024-03-06T11:29:30.683Z,35.56
2024-03-06T11:32:02.807Z,35.02
2024-03-06T11:34:31.624Z,35.13
2024-03-06T11:36:58.636Z,35.56
2024-03-06T11:39:25.309Z,34.53
2024-03-06T11:41:52.265Z,34.04
2024-03-06T11:44:24.782Z,34.59
2024-03-06T11:46:59.670Z,34.77
2024-03-06T11:49:32.710Z,35.06
2024-03-06T11:52:03.327Z,35.59
2024-03-06T11:54:31.404Z,35.18
2024-03-06T11:57:00.377Z,35.83
2024-03-06T11:59:29.108Z,36.78
2024-03-06T12:01:57.024Z,37.29
2024-03-06T12:04:25.356Z,36.13
2024-03-06T12:06:52.125Z,36.58
2024-03-06T12:09:18.820Z,36.00
2024-03-06T12:11:45.614Z,36.01
2024-03-06T12:14:19.095Z,35.75
2024-03-06T12:16:55.137Z,36.83
2024-03-06T12:19:21.885Z,35.68
2024-03-06T12:21:49.416Z,36.47
2024-03-06T12:24:21.132Z,36.97
2024-03-06T12:26:59.636Z,36.76
2024-03-06T12:29:29.706Z,37.54
2024-03-06T12:31:58.388Z,37.18
2024-03-06T12:34:24.986Z,37.45
2024-03-06T12:36:52.059Z,37.07
2024-03-06T12:39:22.445Z,36.57
2024-03-06T12:41:49.186Z,36.12
2024-03-06T12:44:16.539Z,36.51
2024-03-06T12:46:43.654Z,36.14
2024-03-06T12:49:10.299Z,36.35
2024-03-06T12:51:36.964Z,36.71
2024-03-06T12:54:04.951Z,37.43
2024-03-06T12:56:31.559Z,36.47
2024-03-06T12:58:58.164Z,37.38
2024-03-06T13:01:24.745Z,36.60
2024-03-06T13:03:51.411Z,35.29
2024-03-06T13:06:18.051Z,35.00
2024-03-06T13:08:45.019Z,35.98
2024-03-06T13:11:11.981Z,35.47
2024-03-06T13:13:38.892Z,36.04
2024-03-06T13:16:07.551Z,36.36
2024-03-06T13:18:35.403Z,36.77
2024-03-06T13:21:03.046Z,36.52
2024-03-06T13:23:29.793Z,35.91
2024-03-06T13:25:56.333Z,36.44
2024-03-06T13:28:22.794Z,35.08
2024-03-06T13:30:49.298Z,35.82
2024-03-06T13:33:15.985Z,36.05
2024-03-06T13:35:43.838Z,36.24
2024-03-06T13:38:10.541Z,36.15
2024-03-06T13:40:37.514Z,36.52
2024-03-06T13:43:04.154Z,35.29
2024-03-06T13:45:30.794Z,35.29
2024-03-06T13:47:57.563Z,35.67
2024-03-06T13:50:26.824Z,36.17
2024-03-06T13:52:53.490Z,36.61
2024-03-06T13:55:20.063Z,37.74
2024-03-06T13:57:47.486Z,38.02
2024-03-06T14:00:18.394Z,37.99
2024-03-06T14:02:48.968Z,38.29
2024-03-06T14:05:16.151Z,38.58
2024-03-06T14:07:43.101Z,39.33
2024-03-06T14:10:11.918Z,38.80
2024-03-06T14:12:40.195Z,38.43
2024-03-06T14:15:13.980Z,38.35
2024-03-06T14:17:41.473Z,37.97
2024-03-06T14:20:08.652Z,38.26
2024-03-06T14:22:35.210Z,38.21
2024-03-06T14:25:01.704Z,37.90
2024-03-06T14:27:28.488Z,38.52
2024-03-06T14:29:55.466Z,37.51
2024-03-06T14:32:22.478Z,37.26
2024-03-06T14:34:49.048Z,37.06
2024-03-06T14:37:15.730Z,37.66
2024-03-06T14:39:42.270Z,38.14
2024-03-06T14:42:08.906Z,37.16
2024-03-06T14:44:35.645Z,36.73
2024-03-06T14:47:02.317Z,36.56
2024-03-06T14:49:28.968Z,36.27
2024-03-06T14:51:56.696Z,35.64
2024-03-06T14:54:26.887Z,35.39
2024-03-06T14:56:54.438Z,36.32
2024-03-06T14:59:22.428Z,35.36
2024-03-06T15:01:49.047Z,36.55
2024-03-06T15:04:15.647Z,36.87
2024-03-06T15:06:42.391Z,36.01
2024-03-06T15:09:13.059Z,37.41
2024-03-06T15:11:42.847Z,36.88
2024-03-06T15:14:09.733Z,37.94
2024-03-06T15:16:38.480Z,37.52
2024-03-06T15:19:05.328Z,37.81
2024-03-06T15:21:32.959Z,38.07
2024-03-06T15:24:00.516Z,38.52
2024-03-06T15:26:28.663Z,38.38
2024-03-06T15:28:55.247Z,37.67
2024-03-06T15:31:21.841Z,37.70
2024-03-06T15:33:48.546Z,37.79
2024-03-06T15:36:17.239Z,37.52
2024-03-06T15:38:44.033Z,37.78
2024-03-06T15:41:10.873Z,37.85
2024-03-06T15:43:38.107Z,38.31
2024-03-06T15:46:04.945Z,38.83
2024-03-06T15:48:33.825Z,38.25
2024-03-06T15:51:00.890Z,38.52
2024-03-06T15:53:31.412Z,39.14
2024-03-06T15:55:58.013Z,39.37
2024-03-06T15:58:25.733Z,39.72
2024-03-06T16:01:00.146Z,40.38
2024-03-06T16:03:28.309Z,40.61
2024-03-06T16:06:02.324Z,41.03
2024-03-06T16:08:38.427Z,41.75
2024-03-06T16:11:05.589Z,41.96
2024-03-06T16:13:32.323Z,42.64
2024-03-06T16:15:59.468Z,43.23
2024-03-06T16:18:26.146Z,43.26
2024-03-06T16:20:53.571Z,43.40
2024-03-06T16:23:20.292Z,43.51
2024-03-06T16:25:47.036Z,43.32
2024-03-06T16:28:14.130Z,43.02
2024-03-06T16:30:40.711Z,43.22
2024-03-06T16:33:07.481Z,43.48
2024-03-06T16:35:34.296Z,43.91
2024-03-06T16:38:01.006Z,43.82
2024-03-06T16:40:27.592Z,44.38
2024-03-06T16:42:54.232Z,44.41
2024-03-06T16:45:21.611Z,44.58
2024-03-06T16:47:48.428Z,44.94
2024-03-06T16:50:15.652Z,45.12
2024-03-06T16:52:42.567Z,45.59
2024-03-06T16:55:09.501Z,45.23
2024-03-06T16:57:38.326Z,45.45
2024-03-06T17:00:09.201Z,45.80
2024-03-06T17:02:36.255Z,44.79
2024-03-06T17:07:29.963Z,45.54
2024-03-06T17:09:56.653Z,46.32
2024-03-06T17:12:23.299Z,46.21
2024-03-06T17:14:49.937Z,46.63
2024-03-06T17:17:16.622Z,47.92
2024-03-06T17:19:43.179Z,46.33
2024-03-06T17:22:10.210Z,46.47
2024-03-06T17:24:36.812Z,48.20
2024-03-06T17:27:03.477Z,48.76
2024-03-06T17:29:30.037Z,48.04
2024-03-06T17:31:56.803Z,47.10
2024-03-06T17:34:23.687Z,47.76
2024-03-06T17:36:50.232Z,47.91
2024-03-06T17:39:16.852Z,48.02
2024-03-06T17:41:46.050Z,51.09
2024-03-06T17:44:12.741Z,49.08
2024-03-06T17:46:39.293Z,49.58
2024-03-06T17:49:05.920Z,48.53
2024-03-06T17:51:35.986Z,49.27
2024-03-06T17:54:03.758Z,49.60
2024-03-06T17:56:30.622Z,50.04
2024-03-06T17:58:57.211Z,50.08
2024-03-06T18:01:25.124Z,50.43
2024-03-06T18:03:52.869Z,50.21
2024-03-06T18:06:19.347Z,50.67
2024-03-06T18:08:46.157Z,50.63
2024-03-06T18:11:13.153Z,50.76
2024-03-06T18:13:39.930Z,50.87
2024-03-06T18:16:10.842Z,52.19
2024-03-06T18:18:38.291Z,52.61
2024-03-06T18:21:05.595Z,52.78
2024-03-06T18:23:32.458Z,53.56
2024-03-06T18:25:59.142Z,53.28
2024-03-06T18:28:25.725Z,53.62
2024-03-06T18:30:52.522Z,54.32
2024-03-06T18:33:19.751Z,54.70
2024-03-06T18:35:46.432Z,55.50
2024-03-06T18:38:13.424Z,56.26
2024-03-06T18:40:40.076Z,56.05
2024-03-06T18:43:06.635Z,56.60
2024-03-06T18:45:34.439Z,57.05
2024-03-06T18:48:01.359Z,56.73
2024-03-06T18:50:30.923Z,56.81
2024-03-06T18:52:59.532Z,57.56
2024-03-06T18:55:26.194Z,56.78
2024-03-06T18:57:52.760Z,56.40
2024-03-06T19:00:19.624Z,56.45
2024-03-06T19:02:46.290Z,54.51
2024-03-06T19:05:13.067Z,54.39
2024-03-06T19:07:39.682Z,53.07
2024-03-06T19:10:07.121Z,53.46
2024-03-06T19:12:33.747Z,52.87
2024-03-06T19:15:00.557Z,52.93
2024-03-06T19:17:27.208Z,50.65
2024-03-06T19:19:54.178Z,48.57
2024-03-06T19:22:20.751Z,48.99
2024-03-06T19:24:48.347Z,48.54
2024-03-06T19:27:14.869Z,49.24
2024-03-06T19:29:41.572Z,48.05
2024-03-06T19:32:11.592Z,49.36
2024-03-06T19:34:38.527Z,50.50
2024-03-06T19:37:05.346Z,50.35
2024-03-06T19:39:32.360Z,52.61
2024-03-06T19:41:59.465Z,53.09
2024-03-06T19:44:28.167Z,53.06
2024-03-06T19:46:55.250Z,54.63
2024-03-06T19:49:22.061Z,57.20
2024-03-06T19:51:50.798Z,59.15
2024-03-06T19:54:17.292Z,59.23
2024-03-06T19:56:44.761Z,61.30
2024-03-06T19:59:11.388Z,62.35
2024-03-06T20:01:38.052Z,61.91
2024-03-06T20:04:06.422Z,63.64
2024-03-06T20:06:32.989Z,64.35
2024-03-06T20:08:59.676Z,64.27
2024-03-06T20:11:27.311Z,63.65
2024-03-06T20:13:54.309Z,63.83
2024-03-06T20:16:21.255Z,62.67
2024-03-06T20:18:47.920Z,64.01
2024-03-06T20:21:14.575Z,64.52
2024-03-06T20:23:41.179Z,64.23
2024-03-06T20:26:09.182Z,64.63
2024-03-06T20:28:35.827Z,64.72
2024-03-06T20:31:02.522Z,65.27
2024-03-06T20:33:31.368Z,64.61
2024-03-06T20:35:58.197Z,65.81
2024-03-06T20:38:25.939Z,64.79
2024-03-06T20:40:52.744Z,65.34
2024-03-06T20:43:22.984Z,65.42
2024-03-06T20:45:51.673Z,64.28
2024-03-06T20:48:18.710Z,63.88
2024-03-06T20:50:45.306Z,64.12
2024-03-06T20:53:12.697Z,64.39
2024-03-06T20:55:39.498Z,64.71
2024-03-06T20:58:06.084Z,63.71
2024-03-06T21:00:32.909Z,63.42
2024-03-06T21:02:59.476Z,63.57
2024-03-06T21:05:26.100Z,63.30
2024-03-06T21:07:53.219Z,64.37
2024-03-06T21:10:19.849Z,63.66
2024-03-06T21:12:49.245Z,65.14
2024-03-06T21:15:16.904Z,64.57
2024-03-06T21:17:44.400Z,63.66
2024-03-06T21:20:14.402Z,64.86
2024-03-06T21:22:42.310Z,65.45
2024-03-06T21:25:10.089Z,64.92
2024-03-06T21:27:37.923Z,64.67
2024-03-06T21:30:07.251Z,64.99
2024-03-06T21:32:37.536Z,64.47
2024-03-06T21:35:05.304Z,63.73
2024-03-06T21:37:31.930Z,64.33
2024-03-06T21:40:02.354Z,63.54
2024-03-06T21:42:29.000Z,64.00
2024-03-06T21:44:55.616Z,63.79
2024-03-06T21:47:22.724Z,63.92
2024-03-06T21:49:50.422Z,63.92
2024-03-06T21:52:17.463Z,64.42
2024-03-06T21:54:44.250Z,65.26
2024-03-06T21:57:16.276Z,63.71
2024-03-06T21:59:43.137Z,64.62
2024-03-06T22:02:12.002Z,64.59
2024-03-06T22:04:38.882Z,64.50
2024-03-06T22:07:05.620Z,64.96
2024-03-06T22:09:32.275Z,64.67
2024-03-06T22:12:01.884Z,65.05
2024-03-06T22:14:29.007Z,65.82
2024-03-06T22:16:55.586Z,65.74
2024-03-06T22:19:23.138Z,64.77
2024-03-06T22:21:50.157Z,64.67
2024-03-06T22:24:17.696Z,64.33
2024-03-06T22:26:44.734Z,64.66
2024-03-06T22:29:11.712Z,64.40
2024-03-06T22:31:38.957Z,64.61
2024-03-06T22:34:06.427Z,65.06
2024-03-06T22:36:32.918Z,65.26
2024-03-06T22:39:00.695Z,65.44
2024-03-06T22:41:27.690Z,65.11
2024-03-06T22:43:54.262Z,65.21
2024-03-06T22:46:22.497Z,65.41
2024-03-06T22:48:50.183Z,65.30
2024-03-06T22:51:18.736Z,65.94
2024-03-06T22:53:45.717Z,66.34
2024-03-06T22:56:12.444Z,66.57
2024-03-06T22:58:39.001Z,66.84
2024-03-06T23:01:07.542Z,66.46
2024-03-06T23:03:34.903Z,66.67
2024-03-06T23:06:01.885Z,66.12
2024-03-06T23:08:29.110Z,66.42
2024-03-06T23:10:59.396Z,67.06
2024-03-06T23:13:26.491Z,67.15
2024-03-06T23:15:53.835Z,66.48
2024-03-06T23:18:21.023Z,66.79
2024-03-06T23:20:47.854Z,67.34
2024-03-06T23:23:14.599Z,67.29
2024-03-06T23:25:41.401Z,67.88
2024-03-06T23:28:08.012Z,67.68
2024-03-06T23:30:34.597Z,67.75
2024-03-06T23:33:01.308Z,68.80
2024-03-06T23:35:28.544Z,68.60
2024-03-06T23:37:55.070Z,68.51
2024-03-06T23:40:21.690Z,68.33
2024-03-06T23:42:48.406Z,68.46
2024-03-06T23:45:17.052Z,69.30
2024-03-06T23:47:47.073Z,68.37
2024-03-06T23:50:15.265Z,68.19
2024-03-06T23:52:41.799Z,68.76
2024-03-06T23:55:11.232Z,68.45
2024-03-06T23:57:37.876Z,68.66
